createdAt,value
2023-02-03T00:00:39.115Z,1017.03
2023-02-03T00:01:39.145Z,1017.00
2023-02-03T00:02:39.142Z,1016.96
2023-02-03T00:03:39.110Z,1016.97
2023-02-03T00:04:39.058Z,1016.93
2023-02-03T00:05:39.054Z,1016.94
2023-02-03T00:06:39.043Z,1016.87
2023-02-03T00:07:39.033Z,1016.83
2023-02-03T00:08:39.013Z,1016.87
2023-02-03T00:09:39.023Z,1016.86
2023-02-03T00:10:38.999Z,1016.84
2023-02-03T00:11:38.985Z,1016.93
2023-02-03T00:12:38.972Z,1016.92
2023-02-03T00:13:38.964Z,1016.90
2023-02-03T00:14:38.947Z,1016.88
2023-02-03T00:15:38.958Z,1016.94
2023-02-03T00:16:38.974Z,1016.79
2023-02-03T00:17:38.912Z,1016.85
2023-02-03T00:18:38.916Z,1016.92
2023-02-03T00:19:38.892Z,1016.91
2023-02-03T00:20:38.922Z,1016.90
2023-02-03T00:21:38.886Z,1016.98
2023-02-03T00:22:38.864Z,1016.90
2023-02-03T00:23:38.855Z,1016.86
2023-02-03T00:24:38.836Z,1016.94
2023-02-03T00:25:38.836Z,1016.93
2023-02-03T00:26:38.834Z,1017.00
2023-02-03T00:27:38.834Z,1016.91
2023-02-03T00:28:38.798Z,1016.96
2023-02-03T00:29:38.782Z,1016.97
2023-02-03T00:30:38.774Z,1016.95
2023-02-03T00:31:38.885Z,1017.03
2023-02-03T00:32:38.789Z,1016.97
2023-02-03T00:33:38.744Z,1017.02
2023-02-03T00:34:38.726Z,1016.98
2023-02-03T00:35:38.724Z,1017.05
2023-02-03T00:36:38.702Z,1016.95
2023-02-03T00:37:38.717Z,1017.05
2023-02-03T00:38:38.685Z,1017.07
2023-02-03T00:39:38.666Z,1017.07
2023-02-03T00:40:38.685Z,1017.05
2023-02-03T00:41:38.645Z,1017.04
2023-02-03T00:42:38.702Z,1017.00
2023-02-03T00:43:38.640Z,1017.07
2023-02-03T00:44:38.615Z,1017.14
2023-02-03T00:45:38.651Z,1017.16
2023-02-03T00:46:38.624Z,1017.10
2023-02-03T00:47:38.574Z,1017.11
2023-02-03T00:48:38.567Z,1017.06
2023-02-03T00:49:38.557Z,1017.06
2023-02-03T00:50:38.566Z,1017.13
2023-02-03T00:51:38.543Z,1017.18
2023-02-03T00:52:38.529Z,1017.12
2023-02-03T00:53:38.527Z,1017.14
2023-02-03T00:54:38.522Z,1017.28
2023-02-03T00:55:38.517Z,1017.18
2023-02-03T00:56:38.482Z,1017.17
2023-02-03T00:57:38.466Z,1017.33
2023-02-03T00:58:38.458Z,1017.30
2023-02-03T00:59:38.445Z,1017.37
2023-02-03T01:00:38.458Z,1017.28
2023-02-03T01:01:38.427Z,1017.38
2023-02-03T01:02:38.484Z,1017.29
2023-02-03T01:03:38.412Z,1017.41
2023-02-03T01:04:38.390Z,1017.37
2023-02-03T01:05:38.380Z,1017.43
2023-02-03T01:06:38.388Z,1017.47
2023-02-03T01:07:38.366Z,1017.35
2023-02-03T01:08:38.348Z,1017.41
2023-02-03T01:09:38.335Z,1017.29
2023-02-03T01:10:38.339Z,1017.26
2023-02-03T01:11:38.323Z,1017.42
2023-02-03T01:12:38.318Z,1017.39
2023-02-03T01:13:38.296Z,1017.28
2023-02-03T01:14:38.277Z,1017.27
2023-02-03T01:15:38.278Z,1017.26
2023-02-03T01:16:38.339Z,1017.35
2023-02-03T01:17:38.267Z,1017.40
2023-02-03T01:18:38.270Z,1017.34
2023-02-03T01:19:38.235Z,1017.23
2023-02-03T01:20:38.212Z,1017.35
2023-02-03T01:21:38.200Z,1017.29
2023-02-03T01:22:38.217Z,1017.31
2023-02-03T01:23:38.219Z,1017.26
2023-02-03T01:24:38.170Z,1017.23
2023-02-03T01:25:38.156Z,1017.26
2023-02-03T01:26:38.155Z,1017.34
2023-02-03T01:27:38.208Z,1017.36
2023-02-03T01:28:38.122Z,1017.42
2023-02-03T01:29:38.141Z,1017.41
2023-02-03T01:30:38.171Z,1017.41
2023-02-03T01:31:38.196Z,1017.24
2023-02-03T01:32:38.080Z,1017.20
2023-02-03T01:33:38.090Z,1017.25
2023-02-03T01:34:38.050Z,1017.28
2023-02-03T01:35:38.050Z,1017.39
2023-02-03T01:36:38.029Z,1017.36
2023-02-03T01:37:38.081Z,1017.31
2023-02-03T01:38:38.010Z,1017.28
2023-02-03T01:39:38.031Z,1017.25
2023-02-03T01:40:37.991Z,1017.20
2023-02-03T01:41:37.975Z,1017.17
2023-02-03T01:42:37.991Z,1017.17
2023-02-03T01:43:37.948Z,1017.19
2023-02-03T01:44:37.940Z,1017.19
2023-02-03T01:45:37.936Z,1017.13
2023-02-03T01:46:37.923Z,1017.19
2023-02-03T01:47:37.939Z,1017.15
2023-02-03T01:48:37.903Z,1017.19
2023-02-03T01:49:37.945Z,1017.18
2023-02-03T01:50:37.879Z,1017.16
2023-02-03T01:51:37.859Z,1017.22
2023-02-03T01:52:37.851Z,1017.25
2023-02-03T01:53:37.846Z,1017.30
2023-02-03T01:54:37.831Z,1017.22
2023-02-03T01:55:37.844Z,1017.29
2023-02-03T01:56:37.804Z,1017.17
2023-02-03T01:57:37.798Z,1017.13
2023-02-03T01:58:37.781Z,1017.12
2023-02-03T01:59:37.782Z,1017.00
2023-02-03T02:00:37.790Z,1016.95
2023-02-03T02:01:37.779Z,1016.89
2023-02-03T02:02:37.786Z,1016.84
2023-02-03T02:03:37.742Z,1016.79
2023-02-03T02:04:37.711Z,1016.68
2023-02-03T02:05:37.723Z,1016.65
2023-02-03T02:06:37.689Z,1016.67
2023-02-03T02:07:37.701Z,1016.78
2023-02-03T02:08:37.669Z,1016.80
2023-02-03T02:09:37.684Z,1016.65
2023-02-03T02:10:37.643Z,1016.62
2023-02-03T02:11:37.670Z,1016.69
2023-02-03T02:12:37.630Z,1016.58
2023-02-03T02:13:37.615Z,1016.50
2023-02-03T02:14:37.627Z,1016.54
2023-02-03T02:15:37.664Z,1016.52
2023-02-03T02:16:37.580Z,1016.57
2023-02-03T02:17:37.576Z,1016.63
2023-02-03T02:18:37.566Z,1016.68
2023-02-03T02:19:37.574Z,1016.63
2023-02-03T02:20:37.566Z,1016.63
2023-02-03T02:21:37.521Z,1016.55
2023-02-03T02:22:37.513Z,1016.40
2023-02-03T02:23:37.515Z,1016.39
2023-02-03T02:24:37.516Z,1016.42
2023-02-03T02:25:37.485Z,1016.38
2023-02-03T02:26:37.463Z,1016.43
2023-02-03T02:27:37.537Z,1016.24
2023-02-03T02:28:37.451Z,1016.40
2023-02-03T02:29:37.444Z,1016.41
2023-02-03T02:30:37.556Z,1016.31
2023-02-03T02:31:37.588Z,1016.29
2023-02-03T02:32:37.404Z,1016.29
2023-02-03T02:33:37.391Z,1016.27
2023-02-03T02:34:37.387Z,1016.19
2023-02-03T02:35:37.414Z,1016.29
2023-02-03T02:36:37.356Z,1016.34
2023-02-03T02:37:37.353Z,1016.28
2023-02-03T02:38:37.336Z,1016.26
2023-02-03T02:39:37.323Z,1016.31
2023-02-03T02:40:37.343Z,1016.34
2023-02-03T02:41:37.304Z,1016.40
2023-02-03T02:42:37.302Z,1016.53
2023-02-03T02:43:37.305Z,1016.61
2023-02-03T02:44:37.276Z,1016.58
2023-02-03T02:45:37.263Z,1016.45
2023-02-03T02:46:37.267Z,1016.42
2023-02-03T02:47:37.246Z,1016.43
2023-02-03T02:48:37.230Z,1016.54
2023-02-03T02:49:37.245Z,1016.54
2023-02-03T02:50:37.212Z,1016.58
2023-02-03T02:51:37.197Z,1016.54
2023-02-03T02:52:37.192Z,1016.62
2023-02-03T02:53:37.185Z,1016.65
2023-02-03T02:54:37.170Z,1016.69
2023-02-03T02:55:37.179Z,1016.70
2023-02-03T02:56:37.148Z,1016.75
2023-02-03T02:57:37.135Z,1016.70
2023-02-03T02:58:37.129Z,1016.85
2023-02-03T02:59:37.118Z,1016.79
2023-02-03T03:00:37.116Z,1016.82
2023-02-03T03:01:37.127Z,1016.83
2023-02-03T03:02:37.076Z,1016.77
2023-02-03T03:03:37.067Z,1016.78
2023-02-03T03:04:37.180Z,1016.78
2023-02-03T03:05:37.077Z,1016.69
2023-02-03T03:06:37.036Z,1016.62
2023-02-03T03:07:37.027Z,1016.60
2023-02-03T03:08:37.014Z,1016.49
2023-02-03T03:09:37.026Z,1016.58
2023-02-03T03:10:37.002Z,1016.52
2023-02-03T03:11:36.985Z,1016.49
2023-02-03T03:12:36.977Z,1016.54
2023-02-03T03:13:36.977Z,1016.50
2023-02-03T03:14:36.968Z,1016.45
2023-02-03T03:15:37.004Z,1016.47
2023-02-03T03:16:36.927Z,1016.48
2023-02-03T03:17:36.927Z,1016.55
2023-02-03T03:18:36.905Z,1016.55
2023-02-03T03:19:36.917Z,1016.59
2023-02-03T03:20:43.956Z,1016.70
2023-02-03T03:21:36.875Z,1016.62
2023-02-03T03:22:36.859Z,1016.55
2023-02-03T03:23:36.850Z,1016.65
2023-02-03T03:24:36.841Z,1016.52
2023-02-03T03:25:36.868Z,1016.47
2023-02-03T03:26:36.823Z,1016.46
2023-02-03T03:27:36.869Z,1016.46
2023-02-03T03:28:36.800Z,1016.51
2023-02-03T03:29:36.810Z,1016.51
2023-02-03T03:30:36.852Z,1016.55
2023-02-03T03:31:36.885Z,1016.43
2023-02-03T03:32:36.753Z,1016.43
2023-02-03T03:33:36.749Z,1016.33
2023-02-03T03:34:36.759Z,1016.37
2023-02-03T03:35:36.738Z,1016.41
2023-02-03T03:36:36.710Z,1016.43
2023-02-03T03:37:36.743Z,1016.55
2023-02-03T03:38:36.688Z,1016.55
2023-02-03T03:39:36.712Z,1016.49
2023-02-03T03:40:36.658Z,1016.50
2023-02-03T03:41:36.663Z,1016.48
2023-02-03T03:42:36.768Z,1016.39
2023-02-03T03:43:36.635Z,1016.34
2023-02-03T03:44:36.639Z,1016.38
2023-02-03T03:45:36.609Z,1016.22
2023-02-03T03:46:36.629Z,1016.37
2023-02-03T03:47:36.592Z,1016.47
2023-02-03T03:48:36.582Z,1016.45
2023-02-03T03:49:36.608Z,1016.52
2023-02-03T03:50:36.552Z,1016.44
2023-02-03T03:51:36.544Z,1016.39
2023-02-03T03:52:36.530Z,1016.21
2023-02-03T03:53:36.522Z,1016.21
2023-02-03T03:54:36.535Z,1016.34
2023-02-03T03:55:36.515Z,1016.33
2023-02-03T03:56:36.488Z,1016.33
2023-02-03T03:57:36.493Z,1016.31
2023-02-03T03:58:36.463Z,1016.41
2023-02-03T03:59:36.453Z,1016.43
2023-02-03T04:00:36.476Z,1016.54
2023-02-03T04:01:36.532Z,1016.42
2023-02-03T04:02:36.518Z,1016.41
2023-02-03T04:03:36.412Z,1016.42
2023-02-03T04:04:36.410Z,1016.37
2023-02-03T04:05:36.414Z,1016.27
2023-02-03T04:06:36.373Z,1016.18
2023-02-03T04:07:36.363Z,1016.17
2023-02-03T04:08:36.352Z,1016.19
2023-02-03T04:09:36.344Z,1015.90
2023-02-03T04:10:36.331Z,1015.89
2023-02-03T04:11:36.354Z,1016.01
2023-02-03T04:12:36.312Z,1015.97
2023-02-03T04:13:36.299Z,1016.19
2023-02-03T04:14:36.287Z,1016.16
2023-02-03T04:15:36.275Z,1016.21
2023-02-03T04:16:36.273Z,1016.12
2023-02-03T04:17:36.275Z,1016.14
2023-02-03T04:18:36.251Z,1016.03
2023-02-03T04:19:36.250Z,1016.20
2023-02-03T04:20:36.243Z,1016.10
2023-02-03T04:21:36.219Z,1016.27
2023-02-03T04:22:36.224Z,1016.10
2023-02-03T04:23:36.191Z,1016.27
2023-02-03T04:24:36.184Z,1016.31
2023-02-03T04:25:36.202Z,1016.29
2023-02-03T04:26:36.162Z,1016.26
2023-02-03T04:27:36.189Z,1016.19
2023-02-03T04:28:36.162Z,1016.24
2023-02-03T04:29:36.127Z,1016.17
2023-02-03T04:30:36.191Z,1016.17
2023-02-03T04:31:36.155Z,1016.01
2023-02-03T04:32:36.116Z,1016.24
2023-02-03T04:33:36.076Z,1016.24
2023-02-03T04:34:36.106Z,1016.18
2023-02-03T04:35:36.069Z,1016.28
2023-02-03T04:36:36.053Z,1016.30
2023-02-03T04:37:36.038Z,1016.31
2023-02-03T04:38:36.033Z,1016.45
2023-02-03T04:39:36.017Z,1016.31
2023-02-03T04:40:36.048Z,1016.34
2023-02-03T04:41:36.010Z,1016.34
2023-02-03T04:42:35.992Z,1016.26
2023-02-03T04:43:35.974Z,1016.26
2023-02-03T04:44:35.976Z,1016.31
2023-02-03T04:45:36.006Z,1016.25
2023-02-03T04:46:35.957Z,1016.26
2023-02-03T04:47:35.928Z,1016.18
2023-02-03T04:48:35.964Z,1016.09
2023-02-03T04:49:35.909Z,1016.21
2023-02-03T04:50:35.924Z,1016.19
2023-02-03T04:51:35.891Z,1016.11
2023-02-03T04:52:35.883Z,1016.04
2023-02-03T04:53:35.866Z,1016.01
2023-02-03T04:54:35.866Z,1015.87
2023-02-03T04:55:42.607Z,1016.11
2023-02-03T04:56:35.865Z,1015.94
2023-02-03T04:57:35.834Z,1015.85
2023-02-03T04:58:35.807Z,1015.93
2023-02-03T04:59:35.807Z,1015.79
2023-02-03T05:00:35.796Z,1015.78
2023-02-03T05:01:35.816Z,1015.82
2023-02-03T05:02:35.792Z,1015.84
2023-02-03T05:03:35.835Z,1015.88
2023-02-03T05:04:35.752Z,1015.86
2023-02-03T05:05:35.743Z,1015.84
2023-02-03T05:06:35.729Z,1015.91
2023-02-03T05:07:35.746Z,1015.93
2023-02-03T05:08:35.705Z,1015.82
2023-02-03T05:09:35.699Z,1015.91
2023-02-03T05:10:35.690Z,1015.87
2023-02-03T05:11:35.669Z,1015.84
2023-02-03T05:12:35.686Z,1015.82
2023-02-03T05:13:35.658Z,1015.82
2023-02-03T05:14:35.639Z,1015.72
2023-02-03T05:15:35.640Z,1015.73
2023-02-03T05:16:35.651Z,1015.66
2023-02-03T05:17:35.626Z,1015.81
2023-02-03T05:18:35.603Z,1015.80
2023-02-03T05:19:35.587Z,1015.78
2023-02-03T05:20:35.583Z,1015.71
2023-02-03T05:21:35.589Z,1015.75
2023-02-03T05:22:35.610Z,1015.68
2023-02-03T05:23:36.747Z,1015.61
2023-02-03T05:24:35.533Z,1015.65
2023-02-03T05:25:35.538Z,1015.57
2023-02-03T05:26:35.528Z,1015.64
2023-02-03T05:27:35.544Z,1015.56
2023-02-03T05:28:35.505Z,1015.67
2023-02-03T05:29:35.488Z,1015.66
2023-02-03T05:30:35.521Z,1015.62
2023-02-03T05:31:35.555Z,1015.64
2023-02-03T05:32:35.468Z,1015.69
2023-02-03T05:33:35.484Z,1015.68
2023-02-03T05:34:35.451Z,1015.66
2023-02-03T05:35:35.448Z,1015.80
2023-02-03T05:36:35.489Z,1015.67
2023-02-03T05:37:35.517Z,1015.66
2023-02-03T05:38:35.471Z,1015.73
2023-02-03T05:39:35.488Z,1015.65
2023-02-03T05:40:35.406Z,1015.63
2023-02-03T05:41:35.467Z,1015.82
2023-02-03T05:42:35.341Z,1015.64
2023-02-03T05:43:35.499Z,1015.78
2023-02-03T05:44:35.344Z,1015.78
2023-02-03T05:45:35.358Z,1015.69
2023-02-03T05:46:35.302Z,1015.58
2023-02-03T05:47:35.290Z,1015.66
2023-02-03T05:48:35.282Z,1015.63
2023-02-03T05:49:35.415Z,1015.68
2023-02-03T05:50:37.452Z,1015.74
2023-02-03T05:51:35.242Z,1015.73
2023-02-03T05:52:35.233Z,1015.72
2023-02-03T05:53:35.222Z,1015.78
2023-02-03T05:54:35.237Z,1015.81
2023-02-03T05:55:35.199Z,1015.81
2023-02-03T05:56:35.194Z,1015.95
2023-02-03T05:57:35.191Z,1015.77
2023-02-03T05:58:35.211Z,1015.84
2023-02-03T05:59:35.188Z,1015.79
2023-02-03T06:00:35.172Z,1015.82
2023-02-03T06:01:35.134Z,1015.99
2023-02-03T06:02:35.124Z,1015.88
2023-02-03T06:03:35.138Z,1015.80
2023-02-03T06:04:35.151Z,1015.87
2023-02-03T06:05:35.177Z,1015.81
2023-02-03T06:06:35.123Z,1015.68
2023-02-03T06:07:35.075Z,1015.71
2023-02-03T06:08:35.071Z,1015.69
2023-02-03T06:09:35.061Z,1015.63
2023-02-03T06:10:35.043Z,1015.96
2023-02-03T06:11:35.077Z,1015.74
2023-02-03T06:12:35.055Z,1015.65
2023-02-03T06:13:35.019Z,1015.64
2023-02-03T06:14:35.010Z,1015.59
2023-02-03T06:15:34.993Z,1015.71
2023-02-03T06:16:35.040Z,1015.74
2023-02-03T06:17:34.964Z,1015.69
2023-02-03T06:18:34.961Z,1015.69
2023-02-03T06:19:34.945Z,1015.70
2023-02-03T06:20:34.950Z,1015.84
2023-02-03T06:21:34.934Z,1015.91
2023-02-03T06:22:34.904Z,1015.86
2023-02-03T06:23:34.907Z,1015.90
2023-02-03T06:24:34.884Z,1015.91
2023-02-03T06:25:34.899Z,1015.89
2023-02-03T06:26:34.885Z,1015.82
2023-02-03T06:27:34.867Z,1015.89
2023-02-03T06:28:34.843Z,1015.83
2023-02-03T06:29:34.836Z,1015.82
2023-02-03T06:30:34.929Z,1015.82
2023-02-03T06:31:34.931Z,1015.74
2023-02-03T06:32:34.829Z,1015.75
2023-02-03T06:33:34.813Z,1015.83
2023-02-03T06:34:34.792Z,1015.67
2023-02-03T06:35:34.764Z,1015.74
2023-02-03T06:36:34.759Z,1015.83
2023-02-03T06:37:34.736Z,1015.74
2023-02-03T06:38:34.744Z,1015.62
2023-02-03T06:39:34.719Z,1015.56
2023-02-03T06:40:34.710Z,1015.63
2023-02-03T06:41:34.695Z,1015.75
2023-02-03T06:42:34.697Z,1015.88
2023-02-03T06:43:34.759Z,1015.85
2023-02-03T06:44:34.710Z,1015.92
2023-02-03T06:45:34.731Z,1016.25
2023-02-03T06:46:34.808Z,1015.85
2023-02-03T06:47:34.696Z,1015.87
2023-02-03T06:48:34.722Z,1015.82
2023-02-03T06:49:34.614Z,1015.72
2023-02-03T06:50:34.599Z,1015.90
2023-02-03T06:51:34.585Z,1015.71
2023-02-03T06:52:34.593Z,1015.81
2023-02-03T06:53:34.732Z,1015.89
2023-02-03T06:54:34.548Z,1015.73
2023-02-03T06:55:34.536Z,1015.80
2023-02-03T06:56:34.517Z,1015.87
2023-02-03T06:57:34.516Z,1015.84
2023-02-03T06:58:34.944Z,1015.84
2023-02-03T06:59:34.516Z,1015.81
2023-02-03T07:00:34.504Z,1015.89
2023-02-03T07:01:34.563Z,1015.76
2023-02-03T07:02:34.483Z,1015.71
2023-02-03T07:03:34.459Z,1015.73
2023-02-03T07:04:34.430Z,1015.72
2023-02-03T07:05:34.428Z,1015.76
2023-02-03T07:06:34.435Z,1015.83
2023-02-03T07:07:34.408Z,1015.79
2023-02-03T07:08:34.392Z,1015.95
2023-02-03T07:09:34.370Z,1016.11
2023-02-03T07:10:34.360Z,1015.88
2023-02-03T07:11:34.400Z,1015.88
2023-02-03T07:12:34.337Z,1015.96
2023-02-03T07:13:34.347Z,1015.83
2023-02-03T07:14:34.315Z,1015.73
2023-02-03T07:15:34.387Z,1015.77
2023-02-03T07:16:34.341Z,1015.77
2023-02-03T07:17:34.291Z,1015.73
2023-02-03T07:18:49.722Z,1015.67
2023-02-03T07:19:35.336Z,1015.81
2023-02-03T07:20:34.256Z,1015.74
2023-02-03T07:21:34.252Z,1016.08
2023-02-03T07:22:34.248Z,1016.01
2023-02-03T07:23:34.219Z,1015.98
2023-02-03T07:24:34.200Z,1015.69
2023-02-03T07:25:34.211Z,1016.27
2023-02-03T07:26:34.256Z,1015.79
2023-02-03T07:27:34.188Z,1015.97
2023-02-03T07:28:34.179Z,1016.35
2023-02-03T07:29:34.149Z,1015.86
2023-02-03T07:30:34.154Z,1015.91
2023-02-03T07:31:34.216Z,1015.66
2023-02-03T07:32:34.115Z,1015.87
2023-02-03T07:33:34.151Z,1015.88
2023-02-03T07:34:34.119Z,1015.79
2023-02-03T07:35:34.280Z,1015.72
2023-02-03T07:36:34.067Z,1015.77
2023-02-03T07:37:34.060Z,1015.83
2023-02-03T07:38:34.054Z,1015.79
2023-02-03T07:39:34.300Z,1015.73
2023-02-03T07:40:34.022Z,1015.92
2023-02-03T07:41:34.089Z,1015.84
2023-02-03T07:42:34.001Z,1015.92
2023-02-03T07:43:34.011Z,1015.77
2023-02-03T07:44:33.989Z,1015.80
2023-02-03T07:45:33.961Z,1015.75
2023-02-03T07:46:34.018Z,1015.76
2023-02-03T07:47:33.940Z,1015.74
2023-02-03T07:48:33.962Z,1015.87
2023-02-03T07:49:34.791Z,1015.90
2023-02-03T07:50:34.042Z,1015.69
2023-02-03T07:51:33.943Z,1015.68
2023-02-03T07:52:33.911Z,1015.70
2023-02-03T07:53:33.903Z,1015.73
2023-02-03T07:54:33.895Z,1015.70
2023-02-03T07:55:33.850Z,1015.89
2023-02-03T07:56:33.840Z,1015.69
2023-02-03T07:57:33.840Z,1015.74
2023-02-03T07:58:33.818Z,1015.78
2023-02-03T07:59:33.840Z,1015.94
2023-02-03T08:00:33.794Z,1015.84
2023-02-03T08:01:33.809Z,1015.92
2023-02-03T08:02:33.779Z,1015.83
2023-02-03T08:03:33.769Z,1015.73
2023-02-03T08:04:33.830Z,1015.81
2023-02-03T08:05:33.742Z,1015.88
2023-02-03T08:06:33.733Z,1015.80
2023-02-03T08:07:33.721Z,1015.85
2023-02-03T08:08:33.703Z,1015.84
2023-02-03T08:09:33.698Z,1015.83
2023-02-03T08:10:33.708Z,1015.78
2023-02-03T08:11:33.682Z,1015.78
2023-02-03T08:12:33.661Z,1015.80
2023-02-03T08:13:33.650Z,1015.97
2023-02-03T08:14:33.632Z,1015.76
2023-02-03T08:15:33.664Z,1015.83
2023-02-03T08:16:33.673Z,1015.88
2023-02-03T08:17:33.604Z,1015.85
2023-02-03T08:18:33.604Z,1015.81
2023-02-03T08:19:33.588Z,1016.08
2023-02-03T08:20:33.575Z,1015.80
2023-02-03T08:21:33.583Z,1015.94
2023-02-03T08:22:33.556Z,1016.07
2023-02-03T08:23:33.552Z,1016.02
2023-02-03T08:24:33.523Z,1015.77
2023-02-03T08:25:33.557Z,1015.73
2023-02-03T08:26:33.503Z,1015.87
2023-02-03T08:27:33.499Z,1015.82
2023-02-03T08:28:33.493Z,1015.75
2023-02-03T08:29:33.550Z,1015.87
2023-02-03T08:30:33.488Z,1015.85
2023-02-03T08:31:33.652Z,1015.82
2023-02-03T08:32:33.444Z,1015.81
2023-02-03T08:33:33.430Z,1015.88
2023-02-03T08:34:33.421Z,1015.80
2023-02-03T08:35:33.430Z,1015.74
2023-02-03T08:36:33.400Z,1015.87
2023-02-03T08:37:33.402Z,1015.88
2023-02-03T08:38:33.618Z,1015.81
2023-02-03T08:39:33.416Z,1015.89
2023-02-03T08:40:33.377Z,1015.89
2023-02-03T08:41:33.437Z,1015.91
2023-02-03T08:42:33.385Z,1015.85
2023-02-03T08:43:33.312Z,1015.89
2023-02-03T08:44:33.306Z,1015.82
2023-02-03T08:45:33.321Z,1015.78
2023-02-03T08:46:33.341Z,1015.74
2023-02-03T08:47:33.273Z,1015.77
2023-02-03T08:48:33.283Z,1015.83
2023-02-03T08:49:33.245Z,1015.74
2023-02-03T08:50:33.245Z,1015.77
2023-02-03T08:51:33.223Z,1015.71
2023-02-03T08:52:33.398Z,1015.63
2023-02-03T08:53:33.223Z,1015.66
2023-02-03T08:54:33.205Z,1015.64
2023-02-03T08:55:33.193Z,1015.72
2023-02-03T08:56:33.207Z,1015.63
2023-02-03T08:57:33.164Z,1015.65
2023-02-03T08:58:33.187Z,1015.70
2023-02-03T08:59:33.134Z,1015.75
2023-02-03T09:00:33.144Z,1015.75
2023-02-03T09:01:33.124Z,1015.62
2023-02-03T09:02:33.115Z,1015.84
2023-02-03T09:03:33.090Z,1015.89
2023-02-03T09:04:33.119Z,1015.86
2023-02-03T09:05:33.088Z,1015.82
2023-02-03T09:06:33.056Z,1015.94
2023-02-03T09:07:33.070Z,1015.86
2023-02-03T09:08:33.057Z,1015.86
2023-02-03T09:09:33.488Z,1015.70
2023-02-03T09:10:33.032Z,1015.76
2023-02-03T09:11:33.007Z,1015.66
2023-02-03T09:12:32.990Z,1015.72
2023-02-03T09:13:32.999Z,1015.77
2023-02-03T09:14:32.984Z,1015.78
2023-02-03T09:15:32.948Z,1015.92
2023-02-03T09:16:33.029Z,1015.79
2023-02-03T09:17:32.924Z,1015.70
2023-02-03T09:18:32.935Z,1015.85
2023-02-03T09:19:35.466Z,1015.82
2023-02-03T09:20:33.043Z,1015.77
2023-02-03T09:21:45.729Z,1016.01
2023-02-03T09:22:33.872Z,1015.93
2023-02-03T09:23:32.877Z,1015.86
2023-02-03T09:24:32.874Z,1015.91
2023-02-03T09:25:32.864Z,1015.89
2023-02-03T09:26:32.850Z,1015.88
2023-02-03T09:27:32.877Z,1015.76
2023-02-03T09:28:32.970Z,1015.92
2023-02-03T09:29:32.793Z,1015.96
2023-02-03T09:30:32.924Z,1015.94
2023-02-03T09:31:32.855Z,1015.84
2023-02-03T09:32:32.768Z,1016.02
2023-02-03T09:33:32.751Z,1015.84
2023-02-03T09:34:32.738Z,1015.97
2023-02-03T09:35:32.734Z,1016.00
2023-02-03T09:36:32.759Z,1016.14
2023-02-03T09:37:32.722Z,1015.95
2023-02-03T09:38:32.752Z,1016.02
2023-02-03T09:39:32.682Z,1015.99
2023-02-03T09:40:32.699Z,1016.19
2023-02-03T09:41:32.680Z,1015.99
2023-02-03T09:42:32.653Z,1016.08
2023-02-03T09:43:32.644Z,1016.07
2023-02-03T09:44:32.624Z,1016.11
2023-02-03T09:45:32.611Z,1015.98
2023-02-03T09:46:32.629Z,1016.00
2023-02-03T09:47:32.584Z,1016.06
2023-02-03T09:48:32.582Z,1015.95
2023-02-03T09:49:32.580Z,1016.00
2023-02-03T09:50:32.559Z,1015.99
2023-02-03T09:51:32.580Z,1015.89
2023-02-03T09:52:32.534Z,1015.91
2023-02-03T09:53:32.545Z,1015.83
2023-02-03T09:54:32.502Z,1015.91
2023-02-03T09:55:32.493Z,1015.81
2023-02-03T09:56:32.510Z,1015.83
2023-02-03T09:57:32.475Z,1015.73
2023-02-03T09:58:32.489Z,1015.71
2023-02-03T09:59:32.445Z,1015.82
2023-02-03T10:00:32.455Z,1015.79
2023-02-03T10:01:32.510Z,1015.84
2023-02-03T10:02:32.482Z,1015.84
2023-02-03T10:03:32.416Z,1015.94
2023-02-03T10:04:32.431Z,1015.96
2023-02-03T10:05:32.375Z,1015.83
2023-02-03T10:06:32.400Z,1015.84
2023-02-03T10:07:32.355Z,1015.96
2023-02-03T10:08:32.345Z,1015.98
2023-02-03T10:09:32.340Z,1016.03
2023-02-03T10:10:32.363Z,1016.03
2023-02-03T10:11:32.338Z,1016.04
2023-02-03T10:12:32.301Z,1016.04
2023-02-03T10:13:32.283Z,1016.04
2023-02-03T10:14:32.272Z,1016.07
2023-02-03T10:15:32.288Z,1016.14
2023-02-03T10:16:32.354Z,1016.11
2023-02-03T10:17:32.255Z,1016.20
2023-02-03T10:18:32.244Z,1016.26
2023-02-03T10:19:32.253Z,1016.21
2023-02-03T10:20:32.211Z,1016.12
2023-02-03T10:21:32.228Z,1016.40
2023-02-03T10:22:32.185Z,1016.25
2023-02-03T10:23:32.175Z,1016.23
2023-02-03T10:24:32.178Z,1016.45
2023-02-03T10:25:32.158Z,1016.33
2023-02-03T10:26:32.145Z,1016.33
2023-02-03T10:27:32.144Z,1016.35
2023-02-03T10:28:32.118Z,1016.45
2023-02-03T10:29:32.105Z,1016.38
2023-02-03T10:30:32.829Z,1016.43
2023-02-03T10:31:32.233Z,1016.34
2023-02-03T10:32:32.074Z,1016.39
2023-02-03T10:33:32.075Z,1016.45
2023-02-03T10:34:32.055Z,1016.55
2023-02-03T10:35:32.036Z,1016.33
2023-02-03T10:36:32.046Z,1016.34
2023-02-03T10:37:32.061Z,1016.37
2023-02-03T10:38:32.028Z,1016.33
2023-02-03T10:39:32.028Z,1016.35
2023-02-03T10:40:31.977Z,1016.37
2023-02-03T10:41:31.987Z,1016.31
2023-02-03T10:42:32.098Z,1016.36
2023-02-03T10:43:31.953Z,1016.41
2023-02-03T10:44:31.941Z,1016.33
2023-02-03T10:45:31.926Z,1016.43
2023-02-03T10:46:31.977Z,1016.33
2023-02-03T10:47:31.902Z,1016.46
2023-02-03T10:48:31.912Z,1016.30
2023-02-03T10:49:31.873Z,1016.41
2023-02-03T10:50:33.051Z,1016.34
2023-02-03T10:51:31.874Z,1016.37
2023-02-03T10:52:31.845Z,1016.34
2023-02-03T10:53:31.846Z,1016.37
2023-02-03T10:54:31.873Z,1016.44
2023-02-03T10:55:31.814Z,1016.42
2023-02-03T10:56:31.805Z,1016.41
2023-02-03T10:57:31.783Z,1016.43
2023-02-03T10:58:31.804Z,1016.49
2023-02-03T10:59:31.770Z,1016.50
2023-02-03T11:00:31.752Z,1016.15
2023-02-03T11:01:31.761Z,1016.51
2023-02-03T11:02:31.764Z,1016.39
2023-02-03T11:03:31.753Z,1016.53
2023-02-03T11:04:31.732Z,1016.54
2023-02-03T11:05:31.694Z,1016.60
2023-02-03T11:06:31.688Z,1016.63
2023-02-03T11:07:31.687Z,1016.64
2023-02-03T11:08:31.665Z,1016.66
2023-02-03T11:09:31.699Z,1016.58
2023-02-03T11:10:31.639Z,1016.70
2023-02-03T11:11:31.683Z,1016.64
2023-02-03T11:12:31.622Z,1016.84
2023-02-03T11:13:31.613Z,1016.59
2023-02-03T11:14:31.619Z,1016.69
2023-02-03T11:15:31.578Z,1016.61
2023-02-03T11:16:31.581Z,1016.53
2023-02-03T11:17:31.557Z,1016.57
2023-02-03T11:18:31.550Z,1016.58
2023-02-03T11:19:31.569Z,1016.59
2023-02-03T11:20:31.531Z,1016.51
2023-02-03T11:21:31.511Z,1016.65
2023-02-03T11:22:31.509Z,1016.64
2023-02-03T11:23:31.488Z,1016.58
2023-02-03T11:24:31.487Z,1016.54
2023-02-03T11:25:31.480Z,1016.60
2023-02-03T11:26:31.521Z,1016.59
2023-02-03T11:27:31.463Z,1016.70
2023-02-03T11:28:31.441Z,1016.65
2023-02-03T11:29:31.470Z,1016.62
2023-02-03T11:30:31.597Z,1016.75
2023-02-03T11:31:31.623Z,1016.87
2023-02-03T11:32:31.394Z,1016.62
2023-02-03T11:33:31.372Z,1016.53
2023-02-03T11:34:31.364Z,1016.56
2023-02-03T11:35:31.349Z,1016.63
2023-02-03T11:36:31.370Z,1016.59
2023-02-03T11:37:31.333Z,1016.47
2023-02-03T11:38:31.320Z,1016.55
2023-02-03T11:39:31.322Z,1016.41
2023-02-03T11:40:31.357Z,1016.55
2023-02-03T11:41:31.302Z,1016.73
2023-02-03T11:42:31.279Z,1016.73
2023-02-03T11:43:31.262Z,1016.64
2023-02-03T11:44:31.325Z,1016.64
2023-02-03T11:45:31.242Z,1016.50
2023-02-03T11:46:31.313Z,1016.75
2023-02-03T11:47:31.213Z,1016.61
2023-02-03T11:48:31.223Z,1016.66
2023-02-03T11:49:31.213Z,1016.74
2023-02-03T11:50:31.365Z,1016.89
2023-02-03T11:51:31.172Z,1016.59
2023-02-03T11:52:31.190Z,1016.79
2023-02-03T11:53:31.189Z,1016.75
2023-02-03T11:54:31.138Z,1016.77
2023-02-03T11:55:31.143Z,1016.66
2023-02-03T11:56:31.124Z,1016.77
2023-02-03T11:57:31.127Z,1016.82
2023-02-03T11:58:31.095Z,1016.77
2023-02-03T11:59:31.076Z,1016.72
2023-02-03T12:00:31.181Z,1016.76
2023-02-03T12:01:31.053Z,1016.76
2023-02-03T12:02:31.112Z,1016.77
2023-02-03T12:03:31.042Z,1016.75
2023-02-03T12:04:31.084Z,1016.72
2023-02-03T12:05:31.031Z,1016.71